createdAt,value
2018-01-01T00:08:18.784Z,10.25
2018-01-01T00:28:58.182Z,9.93
2018-01-01T01:07:29.769Z,9.70
2018-01-01T01:28:04.119Z,9.65
2018-01-01T01:48:48.301Z,9.63
2018-01-01T02:09:23.578Z,9.56
2018-01-01T02:29:58.848Z,9.41
2018-01-01T02:50:36.889Z,9.41
2018-01-01T03:11:14.305Z,9.29
2018-01-01T03:31:46.508Z,8.95
2018-01-01T03:52:23.043Z,8.48
2018-01-01T04:12:57.056Z,7.68
2018-01-01T04:33:34.169Z,7.27
2018-01-01T04:54:07.723Z,6.70
2018-01-01T05:14:40.719Z,6.55
2018-01-01T05:35:16.912Z,6.61
2018-01-01T05:55:49.111Z,6.44
2018-01-01T06:16:25.307Z,6.34
2018-01-01T06:36:59.657Z,6.43
2018-01-01T06:57:37.111Z,6.56
2018-01-01T07:18:08.967Z,6.83
2018-01-01T07:38:46.532Z,6.78
2018-01-01T07:59:22.587Z,6.89
2018-01-01T08:19:58.787Z,6.93
2018-01-01T08:40:34.300Z,6.75
2018-01-01T09:01:07.173Z,7.00
2018-01-01T09:21:43.699Z,7.14
2018-01-01T09:42:18.345Z,7.34
2018-01-01T10:02:52.067Z,7.55
2018-01-01T10:23:26.650Z,7.62
2018-01-01T10:44:01.718Z,7.78
2018-01-01T11:04:33.582Z,8.13
2018-01-01T11:25:07.929Z,8.16
2018-01-01T11:45:43.368Z,8.13
2018-01-01T12:06:18.166Z,8.19
2018-01-01T12:27:02.658Z,8.26
2018-01-01T12:47:46.230Z,8.14
2018-01-01T13:26:18.865Z,8.13
2018-01-01T13:35:22.508Z,8.07
2018-01-01T13:55:58.506Z,7.91
2018-01-01T14:16:32.966Z,7.53
2018-01-01T14:37:09.969Z,7.36
2018-01-01T14:57:47.085Z,6.77
2018-01-01T15:18:24.507Z,6.75
2018-01-01T15:39:00.702Z,6.55
2018-01-01T15:59:38.213Z,6.68
2018-01-01T16:20:11.244Z,6.60
2018-01-01T16:40:47.445Z,6.59
2018-01-01T17:01:23.635Z,6.57
2018-01-01T17:21:58.905Z,6.56
2018-01-01T17:42:34.189Z,6.68
2018-01-01T18:03:06.376Z,6.62
2018-01-01T18:23:43.185Z,6.73
2018-01-01T18:44:17.841Z,6.86
2018-01-01T19:04:54.031Z,6.91
2018-01-01T19:25:28.495Z,6.93
2018-01-01T19:46:02.432Z,7.01
2018-01-01T20:06:38.316Z,6.87
2018-01-01T20:27:12.056Z,6.89
2018-01-01T20:47:51.434Z,6.97
2018-01-01T21:08:24.445Z,6.95
2018-01-01T21:29:02.783Z,6.99
2018-01-01T21:49:38.294Z,7.10
2018-01-01T22:10:12.349Z,6.99
2018-01-01T22:30:44.574Z,6.99
2018-01-01T22:51:20.488Z,6.80
2018-01-01T23:11:56.686Z,6.72
2018-01-01T23:32:31.036Z,6.67
2018-01-01T23:53:03.232Z,6.42
